EDT,Max TemperatureF,Mean TemperatureF,Min TemperatureF,Max Dew PointF,MeanDew PointF,Min DewpointF,Max Humidity, Mean Humidity, Min Humidity, Max Sea Level PressureIn, Mean Sea Level PressureIn, Min Sea Level PressureIn, Max VisibilityMiles, Mean VisibilityMiles, Min VisibilityMiles, Max Wind SpeedMPH, Mean Wind SpeedMPH, Max Gust SpeedMPH,PrecipitationIn, CloudCover, Events, WindDirDegrees
2012-10-1,87,80,73,75,73,71,93,77,61,29.77,29.70,29.66,10,9,2,12,8,17,0.25,4,Rain-Thunderstorm,163
2012-10-2,86,78,69,73,67,60,93,69,44,30.01,29.83,29.72,10,10,10,17,5,22,0.00,4,Rain,241
2012-10-3,80,74,68,72,67,64,90,79,67,30.19,30.11,30.01,10,8,1,9,2,12,1.12,6,Rain,29
2012-10-4,84,77,69,73,70,66,97,83,69,30.23,30.17,30.13,10,9,5,9,4,12,T,6,Rain,45
2012-10-5,84,78,72,73,71,70,94,80,65,30.15,30.09,30.00,10,9,4,6,2,9,0.00,4,,51
2012-10-6,90,80,69,72,69,66,97,74,50,30.01,29.97,29.89,10,10,10,13,3,16,0.00,3,Fog,11
2012-10-7,89,79,68,70,65,63,90,67,43,30.02,29.97,29.94,10,10,10,12,5,16,0.00,1,,341
2012-10-8,81,74,66,64,62,59,87,69,51,30.07,30.02,29.98,10,10,10,13,5,16,T,3,,357
2012-10-9,78,70,62,64,61,58,93,74,54,30.12,30.07,30.03,10,9,7,10,5,13,0.00,4,,46
2012-10-10,85,73,60,65,60,54,100,67,34,30.17,30.12,30.06,10,6,0,8,2,,0.00,3,Fog,34
2012-10-11,84,71,57,60,57,53,90,65,40,30.24,30.19,30.14,10,10,10,12,3,17,0.00,0,,46
2012-10-12,87,71,55,64,58,52,93,67,40,30.26,30.20,30.16,10,10,10,10,2,15,0.00,0,,346
2012-10-13,86,77,67,64,61,58,87,64,40,30.27,30.20,30.17,10,10,10,14,7,,0.00,1,,63
2012-10-14,88,77,65,65,63,57,87,62,36,30.19,30.12,30.03,10,10,10,12,5,15,0.00,1,,88
2012-10-15,88,76,64,67,63,60,93,68,43,30.02,29.94,29.83,10,8,0,14,4,28,0.00,2,Fog,302
2012-10-16,80,67,53,58,48,41,83,56,28,29.97,29.91,29.86,10,10,10,13,4,18,0.00,0,,6
2012-10-17,81,70,58,60,55,52,86,64,42,29.96,29.89,29.83,10,10,10,12,2,23,0.00,0,,134
2012-10-18,84,70,56,70,61,52,97,74,51,29.88,29.84,29.80,10,7,0,13,4,17,0.09,4,Fog-Rain,257
2012-10-19,81,71,61,67,55,35,97,59,20,29.93,29.86,29.83,10,10,10,12,3,15,0.00,3,Fog,318
2012-10-20,79,62,45,51,45,39,93,60,26,30.00,29.94,29.90,10,10,10,16,3,21,0.00,0,,309
2012-10-21,81,64,47,51,47,44,89,59,28,30.12,30.06,30.00,10,10,10,13,3,16,0.00,0,,9
2012-10-22,83,67,50,58,53,46,86,63,39,30.17,30.12,30.07,10,10,10,13,4,18,0.00,0,,59
2012-10-23,85,69,53,61,57,49,89,65,40,30.14,30.09,30.04,10,10,10,14,4,18,0.00,1,,82
2012-10-24,86,72,58,62,59,56,93,65,37,30.12,30.06,30.00,10,10,10,16,4,20,0.00,1,Fog,73
2012-10-25,85,75,64,65,63,61,93,71,48,30.02,29.97,29.92,10,10,10,13,5,16,0.00,2,,55
2012-10-26,87,75,62,64,60,55,93,64,34,29.94,29.88,29.81,10,10,10,15,7,23,0.00,0,,13
2012-10-27,80,69,58,58,56,51,78,63,48,29.82,29.78,29.71,10,10,10,17,10,23,0.00,0,,326
2012-10-28,60,56,52,51,47,42,80,66,51,29.90,29.82,29.79,10,10,10,21,12,28,0.00,6,,316
2012-10-29,66,56,46,40,32,25,71,47,22,29.95,29.89,29.81,10,10,10,23,12,31,0.00,0,,307
2012-10-30,67,54,41,33,27,18,62,39,15,29.96,29.90,29.85,10,10,10,25,13,33,0.00,0,,283
2012-10-31,76,56,36,48,37,32,82,53,23,30.03,29.98,29.92,10,10,10,21,8,28,0.00,0,,259